sensor_id;sensor_type;location;lat;lon;timestamp;P1;durP1;ratioP1;P2;durP2;ratioP2
19036;SDS011;9651;49.138;8.900;2023-09-18T00:03:28;3.58;;;2.63;;
19036;SDS011;9651;49.138;8.900;2023-09-18T00:07:30;3.10;;;2.20;;
19036;SDS011;9651;49.138;8.900;2023-09-18T00:11:33;6.20;;;2.75;;
19036;SDS011;9651;49.138;8.900;2023-09-18T00:15:36;2.90;;;2.45;;
19036;SDS011;9651;49.138;8.900;2023-09-18T00:19:38;5.03;;;2.38;;
19036;SDS011;9651;49.138;8.900;2023-09-18T00:23:40;2.83;;;2.40;;
19036;SDS011;9651;49.138;8.900;2023-09-18T00:27:43;3.08;;;2.70;;
19036;SDS011;9651;49.138;8.900;2023-09-18T00:31:45;3.28;;;1.98;;
19036;SDS011;9651;49.138;8.900;2023-09-18T00:35:47;2.95;;;2.25;;
19036;SDS011;9651;49.138;8.900;2023-09-18T00:39:50;3.15;;;2.38;;
19036;SDS011;9651;49.138;8.900;2023-09-18T00:43:53;3.67;;;2.20;;
19036;SDS011;9651;49.138;8.900;2023-09-18T00:47:55;3.13;;;2.30;;
19036;SDS011;9651;49.138;8.900;2023-09-18T00:51:57;2.80;;;2.30;;
19036;SDS011;9651;49.138;8.900;2023-09-18T00:55:59;3.78;;;2.80;;
19036;SDS011;9651;49.138;8.900;2023-09-18T01:00:05;5.13;;;2.45;;
19036;SDS011;9651;49.138;8.900;2023-09-18T01:04:09;2.88;;;2.50;;
19036;SDS011;9651;49.138;8.900;2023-09-18T01:08:13;2.97;;;2.67;;
19036;SDS011;9651;49.138;8.900;2023-09-18T01:12:17;2.83;;;2.35;;
19036;SDS011;9651;49.138;8.900;2023-09-18T01:16:24;4.43;;;2.63;;
19036;SDS011;9651;49.138;8.900;2023-09-18T01:20:28;3.60;;;2.58;;
19036;SDS011;9651;49.138;8.900;2023-09-18T01:24:32;2.65;;;2.38;;
19036;SDS011;9651;49.138;8.900;2023-09-18T01:28:34;2.97;;;2.35;;
19036;SDS011;9651;49.138;8.900;2023-09-18T01:32:36;4.00;;;2.45;;
19036;SDS011;9651;49.138;8.900;2023-09-18T01:36:40;5.75;;;2.70;;
19036;SDS011;9651;49.138;8.900;2023-09-18T01:40:44;3.80;;;2.55;;
19036;SDS011;9651;49.138;8.900;2023-09-18T01:44:46;3.40;;;2.17;;
19036;SDS011;9651;49.138;8.900;2023-09-18T01:48:49;2.85;;;2.30;;
19036;SDS011;9651;49.138;8.900;2023-09-18T01:52:52;2.58;;;2.25;;
19036;SDS011;9651;49.138;8.900;2023-09-18T01:56:55;4.07;;;2.42;;
19036;SDS011;9651;49.138;8.900;2023-09-18T02:01:00;5.07;;;2.67;;
19036;SDS011;9651;49.138;8.900;2023-09-18T02:05:02;4.07;;;2.60;;
19036;SDS011;9651;49.138;8.900;2023-09-18T02:09:04;11.55;;;2.92;;
19036;SDS011;9651;49.138;8.900;2023-09-18T02:13:09;7.50;;;3.15;;
19036;SDS011;9651;49.138;8.900;2023-09-18T02:17:11;4.65;;;3.00;;
19036;SDS011;9651;49.138;8.900;2023-09-18T02:21:18;5.60;;;3.40;;
19036;SDS011;9651;49.138;8.900;2023-09-18T02:25:20;5.20;;;3.42;;
19036;SDS011;9651;49.138;8.900;2023-09-18T02:29:23;6.75;;;3.42;;
19036;SDS011;9651;49.138;8.900;2023-09-18T02:33:25;6.00;;;3.25;;
19036;SDS011;9651;49.138;8.900;2023-09-18T02:37:27;10.43;;;3.25;;
19036;SDS011;9651;49.138;8.900;2023-09-18T02:41:30;7.00;;;3.20;;
19036;SDS011;9651;49.138;8.900;2023-09-18T02:45:33;3.33;;;3.03;;
19036;SDS011;9651;49.138;8.900;2023-09-18T02:49:35;4.88;;;3.47;;
19036;SDS011;9651;49.138;8.900;2023-09-18T02:53:37;7.15;;;3.25;;
19036;SDS011;9651;49.138;8.900;2023-09-18T02:57:39;8.10;;;3.45;;
19036;SDS011;9651;49.138;8.900;2023-09-18T03:01:43;3.97;;;3.58;;
19036;SDS011;9651;49.138;8.900;2023-09-18T03:05:45;5.80;;;3.25;;
19036;SDS011;9651;49.138;8.900;2023-09-18T03:09:46;3.25;;;2.80;;
19036;SDS011;9651;49.138;8.900;2023-09-18T03:13:48;5.03;;;3.00;;
19036;SDS011;9651;49.138;8.900;2023-09-18T03:17:54;7.00;;;3.50;;
19036;SDS011;9651;49.138;8.900;2023-09-18T03:21:56;8.07;;;4.07;;
19036;SDS011;9651;49.138;8.900;2023-09-18T03:25:58;9.68;;;3.35;;
19036;SDS011;9651;49.138;8.900;2023-09-18T03:30:00;5.13;;;3.47;;
19036;SDS011;9651;49.138;8.900;2023-09-18T03:34:04;8.30;;;3.75;;
19036;SDS011;9651;49.138;8.900;2023-09-18T03:38:06;5.10;;;3.13;;
19036;SDS011;9651;49.138;8.900;2023-09-18T03:42:08;4.70;;;3.17;;
19036;SDS011;9651;49.138;8.900;2023-09-18T03:46:10;7.63;;;3.65;;
19036;SDS011;9651;49.138;8.900;2023-09-18T03:50:19;4.00;;;3.22;;
19036;SDS011;9651;49.138;8.900;2023-09-18T03:54:21;6.03;;;2.97;;
19036;SDS011;9651;49.138;8.900;2023-09-18T03:58:24;6.35;;;3.78;;
19036;SDS011;9651;49.138;8.900;2023-09-18T04:02:26;6.65;;;2.85;;
19036;SDS011;9651;49.138;8.900;2023-09-18T04:06:35;8.27;;;3.33;;
19036;SDS011;9651;49.138;8.900;2023-09-18T04:10:37;7.45;;;3.08;;
19036;SDS011;9651;49.138;8.900;2023-09-18T04:14:39;7.28;;;3.10;;
19036;SDS011;9651;49.138;8.900;2023-09-18T04:18:41;10.63;;;3.50;;
19036;SDS011;9651;49.138;8.900;2023-09-18T04:22:45;12.15;;;3.75;;
19036;SDS011;9651;49.138;8.900;2023-09-18T04:26:50;10.95;;;4.10;;
19036;SDS011;9651;49.138;8.900;2023-09-18T04:30:51;12.02;;;3.30;;
19036;SDS011;9651;49.138;8.900;2023-09-18T04:34:55;10.75;;;3.42;;
19036;SDS011;9651;49.138;8.900;2023-09-18T04:38:59;10.65;;;3.95;;
19036;SDS011;9651;49.138;8.900;2023-09-18T04:43:00;10.57;;;3.70;;
19036;SDS011;9651;49.138;8.900;2023-09-18T04:47:04;13.23;;;3.70;;
19036;SDS011;9651;49.138;8.900;2023-09-18T04:51:06;7.40;;;3.42;;
19036;SDS011;9651;49.138;8.900;2023-09-18T04:55:10;9.75;;;3.83;;
19036;SDS011;9651;49.138;8.900;2023-09-18T04:59:12;8.18;;;3.47;;
19036;SDS011;9651;49.138;8.900;2023-09-18T05:03:16;17.00;;;4.22;;
19036;SDS011;9651;49.138;8.900;2023-09-18T05:07:18;13.60;;;3.42;;
19036;SDS011;9651;49.138;8.900;2023-09-18T05:11:22;8.00;;;3.67;;
19036;SDS011;9651;49.138;8.900;2023-09-18T05:15:24;16.27;;;5.13;;
19036;SDS011;9651;49.138;8.900;2023-09-18T05:19:29;11.75;;;3.97;;
19036;SDS011;9651;49.138;8.900;2023-09-18T05:23:31;9.27;;;3.65;;
19036;SDS011;9651;49.138;8.900;2023-09-18T05:27:34;9.70;;;3.88;;
19036;SDS011;9651;49.138;8.900;2023-09-18T05:31:36;12.07;;;4.55;;
19036;SDS011;9651;49.138;8.900;2023-09-18T05:35:39;8.35;;;3.80;;
19036;SDS011;9651;49.138;8.900;2023-09-18T05:39:42;10.90;;;5.30;;
19036;SDS011;9651;49.138;8.900;2023-09-18T05:43:45;9.52;;;4.30;;
19036;SDS011;9651;49.138;8.900;2023-09-18T05:47:47;10.88;;;4.32;;
19036;SDS011;9651;49.138;8.900;2023-09-18T05:51:50;6.63;;;3.45;;
19036;SDS011;9651;49.138;8.900;2023-09-18T05:55:52;9.73;;;3.75;;
19036;SDS011;9651;49.138;8.900;2023-09-18T05:59:55;6.95;;;2.78;;
19036;SDS011;9651;49.138;8.900;2023-09-18T06:03:57;11.25;;;3.03;;
19036;SDS011;9651;49.138;8.900;2023-09-18T06:07:59;11.50;;;3.15;;
19036;SDS011;9651;49.138;8.900;2023-09-18T06:12:01;8.82;;;2.70;;
19036;SDS011;9651;49.138;8.900;2023-09-18T06:16:06;15.52;;;3.15;;
19036;SDS011;9651;49.138;8.900;2023-09-18T06:20:09;7.95;;;2.45;;
19036;SDS011;9651;49.138;8.900;2023-09-18T06:24:12;7.43;;;2.22;;
19036;SDS011;9651;49.138;8.900;2023-09-18T06:28:14;11.40;;;3.05;;
19036;SDS011;9651;49.138;8.900;2023-09-18T06:32:17;9.57;;;2.67;;
19036;SDS011;9651;49.138;8.900;2023-09-18T06:36:19;8.27;;;2.42;;
19036;SDS011;9651;49.138;8.900;2023-09-18T06:40:21;5.40;;;2.00;;
19036;SDS011;9651;49.138;8.900;2023-09-18T06:44:23;9.40;;;2.60;;
19036;SDS011;9651;49.138;8.900;2023-09-18T06:48:26;5.93;;;2.17;;
19036;SDS011;9651;49.138;8.900;2023-09-18T06:52:32;4.22;;;2.30;;
19036;SDS011;9651;49.138;8.900;2023-09-18T06:56:34;6.18;;;2.20;;
19036;SDS011;9651;49.138;8.900;2023-09-18T07:00:36;9.85;;;2.58;;
19036;SDS011;9651;49.138;8.900;2023-09-18T07:04:40;7.40;;;2.13;;
19036;SDS011;9651;49.138;8.900;2023-09-18T07:08:45;6.47;;;1.75;;
19036;SDS011;9651;49.138;8.900;2023-09-18T07:12:49;6.45;;;2.60;;
19036;SDS011;9651;49.138;8.900;2023-09-18T07:16:51;11.00;;;2.55;;
19036;SDS011;9651;49.138;8.900;2023-09-18T07:20:54;10.73;;;2.88;;
19036;SDS011;9651;49.138;8.900;2023-09-18T07:24:56;9.20;;;2.70;;
19036;SDS011;9651;49.138;8.900;2023-09-18T07:28:58;9.18;;;2.92;;
19036;SDS011;9651;49.138;8.900;2023-09-18T07:33:01;9.05;;;2.63;;
19036;SDS011;9651;49.138;8.900;2023-09-18T07:37:04;9.48;;;3.03;;
19036;SDS011;9651;49.138;8.900;2023-09-18T07:41:06;6.10;;;2.20;;
19036;SDS011;9651;49.138;8.900;2023-09-18T07:45:08;4.07;;;2.42;;
19036;SDS011;9651;49.138;8.900;2023-09-18T07:49:10;12.48;;;2.95;;
19036;SDS011;9651;49.138;8.900;2023-09-18T07:53:13;12.95;;;3.40;;
19036;SDS011;9651;49.138;8.900;2023-09-18T07:57:15;6.97;;;2.92;;
19036;SDS011;9651;49.138;8.900;2023-09-18T08:01:18;9.27;;;2.55;;
19036;SDS011;9651;49.138;8.900;2023-09-18T08:05:22;8.38;;;2.80;;
19036;SDS011;9651;49.138;8.900;2023-09-18T08:09:25;6.47;;;2.25;;
19036;SDS011;9651;49.138;8.900;2023-09-18T08:13:29;7.05;;;2.67;;
19036;SDS011;9651;49.138;8.900;2023-09-18T08:17:31;6.55;;;3.60;;
19036;SDS011;9651;49.138;8.900;2023-09-18T08:21:33;7.82;;;1.92;;
19036;SDS011;9651;49.138;8.900;2023-09-18T08:25:36;4.88;;;1.90;;
19036;SDS011;9651;49.138;8.900;2023-09-18T08:29:40;4.93;;;2.13;;
19036;SDS011;9651;49.138;8.900;2023-09-18T08:33:42;5.05;;;2.08;;
19036;SDS011;9651;49.138;8.900;2023-09-18T08:37:45;6.53;;;2.47;;
19036;SDS011;9651;49.138;8.900;2023-09-18T08:41:48;6.90;;;2.83;;
19036;SDS011;9651;49.138;8.900;2023-09-18T08:45:55;4.85;;;1.95;;
19036;SDS011;9651;49.138;8.900;2023-09-18T08:50:01;6.40;;;2.17;;
19036;SDS011;9651;49.138;8.900;2023-09-18T08:54:04;8.35;;;2.60;;
19036;SDS011;9651;49.138;8.900;2023-09-18T08:58:08;5.25;;;1.80;;
19036;SDS011;9651;49.138;8.900;2023-09-18T09:02:10;8.00;;;2.38;;
19036;SDS011;9651;49.138;8.900;2023-09-18T09:06:12;8.05;;;2.08;;
19036;SDS011;9651;49.138;8.900;2023-09-18T09:10:15;6.50;;;2.17;;
19036;SDS011;9651;49.138;8.900;2023-09-18T09:14:18;5.75;;;2.00;;
19036;SDS011;9651;49.138;8.900;2023-09-18T09:18:22;7.03;;;1.58;;
19036;SDS011;9651;49.138;8.900;2023-09-18T09:22:25;4.68;;;1.40;;
19036;SDS011;9651;49.138;8.900;2023-09-18T09:26:27;3.08;;;1.55;;
19036;SDS011;9651;49.138;8.900;2023-09-18T09:30:31;3.38;;;1.52;;
19036;SDS011;9651;49.138;8.900;2023-09-18T09:34:34;3.80;;;1.63;;
19036;SDS011;9651;49.138;8.900;2023-09-18T09:38:37;3.50;;;1.40;;
19036;SDS011;9651;49.138;8.900;2023-09-18T09:42:39;2.13;;;1.08;;
19036;SDS011;9651;49.138;8.900;2023-09-18T09:46:46;2.33;;;1.10;;
19036;SDS011;9651;49.138;8.900;2023-09-18T09:50:49;2.20;;;0.95;;
19036;SDS011;9651;49.138;8.900;2023-09-18T09:54:51;3.17;;;1.00;;
19036;SDS011;9651;49.138;8.900;2023-09-18T09:59:00;2.60;;;1.33;;
19036;SDS011;9651;49.138;8.900;2023-09-18T10:03:06;3.15;;;1.33;;
19036;SDS011;9651;49.138;8.900;2023-09-18T10:07:08;2.35;;;1.20;;
19036;SDS011;9651;49.138;8.900;2023-09-18T10:11:11;1.42;;;1.00;;
19036;SDS011;9651;49.138;8.900;2023-09-18T10:15:17;4.75;;;1.15;;
19036;SDS011;9651;49.138;8.900;2023-09-18T10:19:25;4.57;;;1.38;;
19036;SDS011;9651;49.138;8.900;2023-09-18T10:23:38;4.10;;;1.23;;
19036;SDS011;9651;49.138;8.900;2023-09-18T10:27:47;3.22;;;1.20;;
19036;SDS011;9651;49.138;8.900;2023-09-18T10:31:53;5.90;;;1.27;;
19036;SDS011;9651;49.138;8.900;2023-09-18T10:35:57;3.05;;;1.30;;
19036;SDS011;9651;49.138;8.900;2023-09-18T10:40:01;5.07;;;1.35;;
19036;SDS011;9651;49.138;8.900;2023-09-18T10:44:06;2.63;;;1.00;;
19036;SDS011;9651;49.138;8.900;2023-09-18T10:48:08;2.90;;;0.90;;
19036;SDS011;9651;49.138;8.900;2023-09-18T10:52:12;2.80;;;0.85;;
19036;SDS011;9651;49.138;8.900;2023-09-18T10:56:15;2.22;;;0.90;;
19036;SDS011;9651;49.138;8.900;2023-09-18T11:00:17;2.35;;;1.00;;
19036;SDS011;9651;49.138;8.900;2023-09-18T11:04:22;4.30;;;1.08;;
19036;SDS011;9651;49.138;8.900;2023-09-18T11:08:29;2.70;;;0.90;;
19036;SDS011;9651;49.138;8.900;2023-09-18T11:12:43;1.55;;;0.98;;
19036;SDS011;9651;49.138;8.900;2023-09-18T11:16:46;2.83;;;0.88;;
19036;SDS011;9651;49.138;8.900;2023-09-18T11:29:40;1.05;;;0.75;;
19036;SDS011;9651;49.138;8.900;2023-09-18T11:33:42;5.13;;;0.80;;
19036;SDS011;9651;49.138;8.900;2023-09-18T11:37:44;2.30;;;0.90;;
19036;SDS011;9651;49.138;8.900;2023-09-18T11:41:48;2.33;;;0.73;;
19036;SDS011;9651;49.138;8.900;2023-09-18T11:45:51;2.35;;;1.55;;
19036;SDS011;9651;49.138;8.900;2023-09-18T11:49:54;3.10;;;0.68;;
19036;SDS011;9651;49.138;8.900;2023-09-18T11:53:58;5.25;;;0.85;;
19036;SDS011;9651;49.138;8.900;2023-09-18T11:58:03;1.58;;;0.70;;
19036;SDS011;9651;49.138;8.900;2023-09-18T12:02:09;3.38;;;1.10;;
19036;SDS011;9651;49.138;8.900;2023-09-18T12:06:20;2.42;;;0.70;;
19036;SDS011;9651;49.138;8.900;2023-09-18T12:10:22;2.30;;;1.10;;
19036;SDS011;9651;49.138;8.900;2023-09-18T12:14:27;2.30;;;0.90;;
19036;SDS011;9651;49.138;8.900;2023-09-18T12:18:31;3.58;;;1.40;;
19036;SDS011;9651;49.138;8.900;2023-09-18T12:22:34;1.90;;;0.93;;
19036;SDS011;9651;49.138;8.900;2023-09-18T12:26:37;1.23;;;0.95;;
19036;SDS011;9651;49.138;8.900;2023-09-18T12:30:40;2.67;;;0.93;;
19036;SDS011;9651;49.138;8.900;2023-09-18T12:34:42;2.30;;;0.70;;
19036;SDS011;9651;49.138;8.900;2023-09-18T12:38:45;2.17;;;0.73;;
19036;SDS011;9651;49.138;8.900;2023-09-18T12:42:57;1.58;;;1.00;;
19036;SDS011;9651;49.138;8.900;2023-09-18T12:47:01;0.95;;;0.77;;
19036;SDS011;9651;49.138;8.900;2023-09-18T12:51:04;2.22;;;0.98;;
19036;SDS011;9651;49.138;8.900;2023-09-18T12:55:06;1.77;;;0.80;;
19036;SDS011;9651;49.138;8.900;2023-09-18T12:59:09;1.05;;;0.65;;
19036;SDS011;9651;49.138;8.900;2023-09-18T13:03:14;3.30;;;0.90;;
19036;SDS011;9651;49.138;8.900;2023-09-18T13:07:16;2.25;;;0.70;;
19036;SDS011;9651;49.138;8.900;2023-09-18T13:11:18;2.40;;;0.80;;
19036;SDS011;9651;49.138;8.900;2023-09-18T13:15:26;2.05;;;0.85;;
19036;SDS011;9651;49.138;8.900;2023-09-18T13:19:31;1.50;;;0.60;;
19036;SDS011;9651;49.138;8.900;2023-09-18T13:23:32;4.03;;;0.80;;
19036;SDS011;9651;49.138;8.900;2023-09-18T13:27:34;2.00;;;0.80;;
19036;SDS011;9651;49.138;8.900;2023-09-18T13:31:36;4.55;;;1.15;;
19036;SDS011;9651;49.138;8.900;2023-09-18T13:35:40;1.45;;;0.90;;
19036;SDS011;9651;49.138;8.900;2023-09-18T13:39:43;1.88;;;0.90;;
19036;SDS011;9651;49.138;8.900;2023-09-18T13:43:45;2.47;;;0.90;;
19036;SDS011;9651;49.138;8.900;2023-09-18T13:47:49;2.03;;;0.80;;
19036;SDS011;9651;49.138;8.900;2023-09-18T13:51:52;2.35;;;0.70;;
19036;SDS011;9651;49.138;8.900;2023-09-18T13:55:54;1.90;;;0.85;;
19036;SDS011;9651;49.138;8.900;2023-09-18T13:59:57;2.13;;;0.75;;
19036;SDS011;9651;49.138;8.900;2023-09-18T14:03:59;1.42;;;1.10;;
19036;SDS011;9651;49.138;8.900;2023-09-18T14:08:02;3.67;;;1.20;;
19036;SDS011;9651;49.138;8.900;2023-09-18T14:12:05;1.90;;;0.80;;
19036;SDS011;9651;49.138;8.900;2023-09-18T14:16:08;4.55;;;0.90;;
19036;SDS011;9651;49.138;8.900;2023-09-18T14:20:11;1.70;;;1.00;;
19036;SDS011;9651;49.138;8.900;2023-09-18T14:24:14;4.85;;;1.00;;
19036;SDS011;9651;49.138;8.900;2023-09-18T14:28:18;3.38;;;1.40;;
19036;SDS011;9651;49.138;8.900;2023-09-18T14:32:20;1.73;;;0.90;;
19036;SDS011;9651;49.138;8.900;2023-09-18T14:36:22;1.85;;;0.93;;
19036;SDS011;9651;49.138;8.900;2023-09-18T14:40:25;3.75;;;0.90;;
19036;SDS011;9651;49.138;8.900;2023-09-18T14:44:27;1.73;;;0.90;;
19036;SDS011;9651;49.138;8.900;2023-09-18T14:48:30;1.50;;;1.00;;
19036;SDS011;9651;49.138;8.900;2023-09-18T14:52:32;3.22;;;0.95;;
19036;SDS011;9651;49.138;8.900;2023-09-18T14:56:36;1.98;;;1.00;;
19036;SDS011;9651;49.138;8.900;2023-09-18T15:00:37;2.53;;;1.00;;
19036;SDS011;9651;49.138;8.900;2023-09-18T15:04:39;1.90;;;1.08;;
19036;SDS011;9651;49.138;8.900;2023-09-18T15:08:41;2.97;;;1.00;;
19036;SDS011;9651;49.138;8.900;2023-09-18T15:12:44;1.67;;;1.00;;
19036;SDS011;9651;49.138;8.900;2023-09-18T15:16:46;1.77;;;1.15;;
19036;SDS011;9651;49.138;8.900;2023-09-18T15:20:49;1.60;;;1.00;;
19036;SDS011;9651;49.138;8.900;2023-09-18T15:24:54;2.65;;;1.02;;
19036;SDS011;9651;49.138;8.900;2023-09-18T15:28:57;0.88;;;0.75;;
19036;SDS011;9651;49.138;8.900;2023-09-18T15:33:00;1.70;;;0.98;;
19036;SDS011;9651;49.138;8.900;2023-09-18T15:37:03;2.20;;;1.05;;
19036;SDS011;9651;49.138;8.900;2023-09-18T15:41:05;3.47;;;1.05;;
19036;SDS011;9651;49.138;8.900;2023-09-18T15:45:09;1.88;;;1.08;;
19036;SDS011;9651;49.138;8.900;2023-09-18T15:49:12;2.67;;;1.08;;
19036;SDS011;9651;49.138;8.900;2023-09-18T15:53:14;2.47;;;1.00;;
19036;SDS011;9651;49.138;8.900;2023-09-18T15:57:16;3.65;;;1.00;;
19036;SDS011;9651;49.138;8.900;2023-09-18T16:01:19;1.58;;;1.10;;
19036;SDS011;9651;49.138;8.900;2023-09-18T16:05:22;2.65;;;1.00;;
19036;SDS011;9651;49.138;8.900;2023-09-18T16:09:25;5.38;;;0.90;;
19036;SDS011;9651;49.138;8.900;2023-09-18T16:13:27;3.00;;;1.00;;
19036;SDS011;9651;49.138;8.900;2023-09-18T16:17:30;1.90;;;0.98;;
19036;SDS011;9651;49.138;8.900;2023-09-18T16:21:32;1.95;;;0.98;;
19036;SDS011;9651;49.138;8.900;2023-09-18T16:25:34;1.70;;;1.23;;
19036;SDS011;9651;49.138;8.900;2023-09-18T16:29:36;2.13;;;1.10;;
19036;SDS011;9651;49.138;8.900;2023-09-18T16:33:40;1.27;;;0.90;;
19036;SDS011;9651;49.138;8.900;2023-09-18T16:37:42;1.10;;;0.77;;
19036;SDS011;9651;49.138;8.900;2023-09-18T16:41:45;1.98;;;1.00;;
19036;SDS011;9651;49.138;8.900;2023-09-18T16:45:47;2.00;;;0.98;;
19036;SDS011;9651;49.138;8.900;2023-09-18T16:49:50;2.92;;;0.93;;
19036;SDS011;9651;49.138;8.900;2023-09-18T16:53:52;4.18;;;1.25;;
19036;SDS011;9651;49.138;8.900;2023-09-18T16:57:55;2.90;;;0.98;;
19036;SDS011;9651;49.138;8.900;2023-09-18T17:01:57;3.20;;;1.35;;
19036;SDS011;9651;49.138;8.900;2023-09-18T17:06:02;3.75;;;1.00;;
19036;SDS011;9651;49.138;8.900;2023-09-18T17:10:04;1.88;;;1.20;;
19036;SDS011;9651;49.138;8.900;2023-09-18T17:14:06;1.88;;;1.10;;
19036;SDS011;9651;49.138;8.900;2023-09-18T17:18:09;1.60;;;0.88;;
19036;SDS011;9651;49.138;8.900;2023-09-18T17:22:14;1.92;;;1.08;;
19036;SDS011;9651;49.138;8.900;2023-09-18T17:26:16;1.65;;;0.93;;
19036;SDS011;9651;49.138;8.900;2023-09-18T17:30:18;4.70;;;1.00;;
19036;SDS011;9651;49.138;8.900;2023-09-18T17:34:20;1.98;;;1.45;;
19036;SDS011;9651;49.138;8.900;2023-09-18T17:38:23;5.03;;;1.20;;
19036;SDS011;9651;49.138;8.900;2023-09-18T17:42:26;3.22;;;0.95;;
19036;SDS011;9651;49.138;8.900;2023-09-18T17:46:28;1.60;;;0.85;;
19036;SDS011;9651;49.138;8.900;2023-09-18T17:50:30;3.17;;;0.90;;
19036;SDS011;9651;49.138;8.900;2023-09-18T17:54:33;2.53;;;1.40;;
19036;SDS011;9651;49.138;8.900;2023-09-18T17:58:35;10.85;;;2.08;;
19036;SDS011;9651;49.138;8.900;2023-09-18T18:02:37;7.28;;;1.45;;
19036;SDS011;9651;49.138;8.900;2023-09-18T18:06:39;4.45;;;0.95;;
19036;SDS011;9651;49.138;8.900;2023-09-18T18:10:45;6.68;;;1.52;;
19036;SDS011;9651;49.138;8.900;2023-09-18T18:14:47;2.85;;;0.90;;
19036;SDS011;9651;49.138;8.900;2023-09-18T18:18:49;2.53;;;0.57;;
19036;SDS011;9651;49.138;8.900;2023-09-18T18:22:50;3.45;;;1.08;;
19036;SDS011;9651;49.138;8.900;2023-09-18T18:26:56;2.90;;;0.95;;
19036;SDS011;9651;49.138;8.900;2023-09-18T18:30:57;3.00;;;0.60;;
19036;SDS011;9651;49.138;8.900;2023-09-18T18:34:59;3.50;;;0.80;;
19036;SDS011;9651;49.138;8.900;2023-09-18T18:39:01;5.50;;;0.60;;
19036;SDS011;9651;49.138;8.900;2023-09-18T18:43:06;2.80;;;0.57;;
19036;SDS011;9651;49.138;8.900;2023-09-18T18:47:08;5.65;;;0.60;;
19036;SDS011;9651;49.138;8.900;2023-09-18T18:51:12;4.72;;;0.70;;
19036;SDS011;9651;49.138;8.900;2023-09-18T18:55:16;1.95;;;0.57;;
19036;SDS011;9651;49.138;8.900;2023-09-18T18:59:19;2.53;;;0.88;;
19036;SDS011;9651;49.138;8.900;2023-09-18T19:03:21;4.55;;;0.93;;
19036;SDS011;9651;49.138;8.900;2023-09-18T19:07:23;1.60;;;0.82;;
19036;SDS011;9651;49.138;8.900;2023-09-18T19:11:26;2.47;;;0.98;;
19036;SDS011;9651;49.138;8.900;2023-09-18T19:15:29;0.88;;;0.60;;
19036;SDS011;9651;49.138;8.900;2023-09-18T19:19:31;2.40;;;0.93;;
19036;SDS011;9651;49.138;8.900;2023-09-18T19:23:34;1.60;;;0.80;;
19036;SDS011;9651;49.138;8.900;2023-09-18T19:27:36;1.63;;;0.80;;
19036;SDS011;9651;49.138;8.900;2023-09-18T19:31:39;1.50;;;1.00;;
19036;SDS011;9651;49.138;8.900;2023-09-18T19:35:41;2.72;;;1.10;;
19036;SDS011;9651;49.138;8.900;2023-09-18T19:39:43;2.65;;;0.75;;
19036;SDS011;9651;49.138;8.900;2023-09-18T19:43:45;1.05;;;0.40;;
19036;SDS011;9651;49.138;8.900;2023-09-18T19:47:48;1.15;;;0.50;;
19036;SDS011;9651;49.138;8.900;2023-09-18T19:51:51;2.08;;;0.50;;
19036;SDS011;9651;49.138;8.900;2023-09-18T19:55:53;0.50;;;0.45;;
19036;SDS011;9651;49.138;8.900;2023-09-18T19:59:55;1.42;;;0.45;;
19036;SDS011;9651;49.138;8.900;2023-09-18T20:04:00;1.63;;;0.88;;
19036;SDS011;9651;49.138;8.900;2023-09-18T20:08:02;2.08;;;0.57;;
19036;SDS011;9651;49.138;8.900;2023-09-18T20:12:05;3.92;;;0.82;;
19036;SDS011;9651;49.138;8.900;2023-09-18T20:16:09;1.27;;;0.70;;
19036;SDS011;9651;49.138;8.900;2023-09-18T20:20:12;1.45;;;0.68;;
19036;SDS011;9651;49.138;8.900;2023-09-18T20:24:15;2.05;;;0.80;;
19036;SDS011;9651;49.138;8.900;2023-09-18T20:28:17;1.45;;;0.60;;
19036;SDS011;9651;49.138;8.900;2023-09-18T20:32:19;0.88;;;0.70;;
19036;SDS011;9651;49.138;8.900;2023-09-18T20:36:22;1.60;;;0.60;;
19036;SDS011;9651;49.138;8.900;2023-09-18T20:40:24;2.30;;;0.90;;
19036;SDS011;9651;49.138;8.900;2023-09-18T20:44:26;2.30;;;0.80;;
19036;SDS011;9651;49.138;8.900;2023-09-18T20:48:27;0.90;;;0.57;;
19036;SDS011;9651;49.138;8.900;2023-09-18T20:52:32;1.23;;;0.60;;
19036;SDS011;9651;49.138;8.900;2023-09-18T20:56:35;2.78;;;0.70;;
19036;SDS011;9651;49.138;8.900;2023-09-18T21:00:37;2.20;;;0.90;;
19036;SDS011;9651;49.138;8.900;2023-09-18T21:04:39;2.40;;;0.90;;
19036;SDS011;9651;49.138;8.900;2023-09-18T21:08:43;3.10;;;0.70;;
19036;SDS011;9651;49.138;8.900;2023-09-18T21:12:45;1.45;;;0.95;;
19036;SDS011;9651;49.138;8.900;2023-09-18T21:16:47;1.25;;;1.00;;
19036;SDS011;9651;49.138;8.900;2023-09-18T21:20:51;4.50;;;1.20;;
19036;SDS011;9651;49.138;8.900;2023-09-18T21:24:54;1.95;;;0.80;;
19036;SDS011;9651;49.138;8.900;2023-09-18T21:28:56;2.42;;;1.20;;
19036;SDS011;9651;49.138;8.900;2023-09-18T21:32:58;2.88;;;0.90;;
19036;SDS011;9651;49.138;8.900;2023-09-18T21:37:00;4.35;;;0.95;;
19036;SDS011;9651;49.138;8.900;2023-09-18T21:41:04;0.75;;;0.70;;
19036;SDS011;9651;49.138;8.900;2023-09-18T21:45:06;2.90;;;1.10;;
19036;SDS011;9651;49.138;8.900;2023-09-18T21:49:09;1.52;;;0.80;;
19036;SDS011;9651;49.138;8.900;2023-09-18T21:53:11;2.05;;;0.77;;
19036;SDS011;9651;49.138;8.900;2023-09-18T21:57:14;3.58;;;0.60;;
19036;SDS011;9651;49.138;8.900;2023-09-18T22:01:16;1.65;;;0.90;;
19036;SDS011;9651;49.138;8.900;2023-09-18T22:05:20;2.72;;;0.75;;
19036;SDS011;9651;49.138;8.900;2023-09-18T22:09:22;4.20;;;0.75;;
19036;SDS011;9651;49.138;8.900;2023-09-18T22:13:26;1.67;;;0.50;;
19036;SDS011;9651;49.138;8.900;2023-09-18T22:17:29;1.65;;;0.63;;
19036;SDS011;9651;49.138;8.900;2023-09-18T22:21:31;2.85;;;0.90;;
19036;SDS011;9651;49.138;8.900;2023-09-18T22:25:33;2.38;;;0.80;;
19036;SDS011;9651;49.138;8.900;2023-09-18T22:29:39;0.80;;;0.70;;
19036;SDS011;9651;49.138;8.900;2023-09-18T22:33:42;3.97;;;0.90;;
19036;SDS011;9651;49.138;8.900;2023-09-18T22:37:44;2.88;;;0.90;;
19036;SDS011;9651;49.138;8.900;2023-09-18T22:55:11;3.35;;;0.90;;
19036;SDS011;9651;49.138;8.900;2023-09-18T22:59:13;1.58;;;0.90;;
19036;SDS011;9651;49.138;8.900;2023-09-18T23:03:15;2.50;;;0.70;;
19036;SDS011;9651;49.138;8.900;2023-09-18T23:07:18;2.42;;;1.00;;
19036;SDS011;9651;49.138;8.900;2023-09-18T23:11:21;4.47;;;0.88;;
19036;SDS011;9651;49.138;8.900;2023-09-18T23:15:24;2.42;;;1.10;;
19036;SDS011;9651;49.138;8.900;2023-09-18T23:19:28;5.15;;;0.90;;
19036;SDS011;9651;49.138;8.900;2023-09-18T23:23:30;2.35;;;0.80;;
19036;SDS011;9651;49.138;8.900;2023-09-18T23:27:33;1.75;;;0.85;;
19036;SDS011;9651;49.138;8.900;2023-09-18T23:31:39;1.58;;;0.90;;
19036;SDS011;9651;49.138;8.900;2023-09-18T23:35:42;3.05;;;0.90;;
19036;SDS011;9651;49.138;8.900;2023-09-18T23:39:45;4.03;;;0.88;;
19036;SDS011;9651;49.138;8.900;2023-09-18T23:43:50;2.33;;;0.85;;
19036;SDS011;9651;49.138;8.900;2023-09-18T23:47:52;5.55;;;0.90;;
19036;SDS011;9651;49.138;8.900;2023-09-18T23:51:55;1.42;;;0.95;;
19036;SDS011;9651;49.138;8.900;2023-09-18T23:55:57;1.02;;;0.77;;
